createdAt,value
2023-11-27T00:01:51.130Z,9.37
2023-11-27T00:05:12.862Z,9.50
2023-11-27T00:08:34.215Z,8.43
2023-11-27T00:11:57.409Z,7.40
2023-11-27T00:15:19.215Z,8.27
2023-11-27T00:18:40.521Z,8.37
2023-11-27T00:22:01.797Z,9.37
2023-11-27T00:25:23.590Z,8.67
2023-11-27T00:28:46.514Z,8.97
2023-11-27T00:32:08.717Z,6.87
2023-11-27T00:35:30.458Z,7.77
2023-11-27T00:38:51.603Z,9.47
2023-11-27T00:42:12.797Z,7.97
2023-11-27T00:45:35.522Z,8.23
2023-11-27T00:48:57.203Z,7.90
2023-11-27T00:52:19.370Z,6.57
2023-11-27T00:55:41.252Z,9.17
2023-11-27T00:59:02.901Z,8.97
2023-11-27T01:02:25.874Z,11.77
2023-11-27T01:05:47.812Z,10.27
2023-11-27T01:09:09.718Z,11.13
2023-11-27T01:12:30.996Z,10.37
2023-11-27T01:15:55.946Z,8.00
2023-11-27T01:19:19.041Z,9.70
2023-11-27T01:22:40.846Z,7.77
2023-11-27T01:26:02.645Z,10.40
2023-11-27T01:29:23.929Z,9.67
2023-11-27T01:32:45.680Z,8.77
2023-11-27T01:36:09.839Z,9.87
2023-11-27T01:39:31.421Z,7.97
2023-11-27T01:42:52.809Z,11.80
2023-11-27T01:46:24.635Z,6.77
2023-11-27T01:49:46.903Z,11.47
2023-11-27T01:53:09.628Z,7.43
2023-11-27T01:56:32.519Z,6.80
2023-11-27T01:59:57.252Z,8.37
2023-11-27T02:03:19.205Z,8.67
2023-11-27T02:06:41.221Z,8.03
2023-11-27T02:10:04.684Z,8.17
2023-11-27T02:13:27.504Z,9.47
2023-11-27T02:16:50.200Z,6.50
2023-11-27T02:20:13.067Z,8.67
2023-11-27T02:23:36.240Z,7.43
2023-11-27T02:26:58.500Z,8.03
2023-11-27T02:30:21.552Z,8.40
2023-11-27T02:33:43.177Z,10.47
2023-11-27T02:37:04.898Z,10.67
2023-11-27T02:40:27.898Z,9.10
2023-11-27T02:43:49.638Z,8.37
2023-11-27T02:47:11.147Z,9.20
2023-11-27T02:50:33.100Z,12.37
2023-11-27T02:53:55.063Z,7.17
2023-11-27T02:57:19.036Z,11.60
2023-11-27T03:00:40.852Z,8.77
2023-11-27T03:04:02.319Z,10.43
2023-11-27T03:07:24.165Z,10.97
2023-11-27T03:10:45.657Z,10.57
2023-11-27T03:14:08.688Z,9.07
2023-11-27T03:17:30.170Z,9.60
2023-11-27T03:20:51.533Z,7.50
2023-11-27T03:24:12.821Z,9.93
2023-11-27T03:27:34.803Z,12.13
2023-11-27T03:30:57.470Z,8.17
2023-11-27T03:34:18.787Z,9.27
2023-11-27T03:37:40.958Z,10.97
2023-11-27T03:41:05.061Z,13.13
2023-11-27T03:44:26.661Z,9.23
2023-11-27T03:47:49.423Z,8.97
2023-11-27T03:51:11.722Z,9.37
2023-11-27T03:54:32.976Z,9.03
2023-11-27T03:57:54.403Z,10.67
2023-11-27T04:01:16.250Z,10.90
2023-11-27T04:04:39.936Z,10.87
2023-11-27T04:08:01.717Z,10.67
2023-11-27T04:11:23.496Z,11.17
2023-11-27T04:14:44.877Z,13.67
2023-11-27T04:18:06.331Z,10.30
2023-11-27T04:21:29.066Z,11.00
2023-11-27T04:24:52.422Z,10.27
2023-11-27T04:28:14.237Z,12.23
2023-11-27T04:31:36.170Z,12.03
2023-11-27T04:34:57.774Z,10.13
2023-11-27T04:38:20.406Z,10.07
2023-11-27T04:41:43.575Z,10.10
2023-11-27T04:45:08.048Z,13.17
2023-11-27T04:48:29.743Z,11.77
2023-11-27T04:51:51.201Z,8.77
2023-11-27T04:55:14.388Z,10.10
2023-11-27T04:58:35.611Z,9.03
2023-11-27T05:01:57.010Z,12.17
2023-11-27T05:05:18.879Z,14.07
2023-11-27T05:08:40.473Z,11.70
2023-11-27T05:12:03.372Z,15.30
2023-11-27T05:15:24.586Z,10.57
2023-11-27T05:18:46.313Z,15.60
2023-11-27T05:22:08.259Z,22.83
2023-11-27T05:25:30.306Z,15.93
2023-11-27T05:28:53.282Z,15.03
2023-11-27T05:51:40.687Z,18.97
2023-11-27T05:55:02.189Z,17.73
2023-11-27T05:58:23.847Z,19.37
2023-11-27T06:01:45.602Z,19.93
2023-11-27T06:05:07.861Z,17.23
2023-11-27T06:08:30.560Z,13.53
2023-11-27T06:11:52.306Z,15.00
2023-11-27T06:15:15.305Z,15.10
2023-11-27T06:18:37.410Z,13.10
2023-11-27T06:21:59.954Z,17.23
2023-11-27T06:25:23.006Z,16.70
2023-11-27T06:28:45.065Z,14.47
2023-11-27T06:32:07.212Z,14.63
2023-11-27T06:35:28.728Z,23.87
2023-11-27T06:38:50.058Z,18.27
2023-11-27T06:42:13.362Z,13.97
2023-11-27T06:45:36.152Z,15.07
2023-11-27T06:48:57.456Z,17.33
2023-11-27T06:52:19.174Z,16.90
2023-11-27T06:55:41.048Z,19.53
2023-11-27T06:59:04.327Z,17.73
2023-11-27T07:02:27.237Z,19.43
2023-11-27T07:05:48.661Z,20.57
2023-11-27T07:09:11.976Z,17.60
2023-11-27T07:12:33.846Z,18.00
2023-11-27T07:15:57.079Z,19.50
2023-11-27T07:19:18.630Z,18.80
2023-11-27T07:22:43.988Z,16.70
2023-11-27T07:26:05.608Z,16.93
2023-11-27T07:29:28.339Z,17.33
2023-11-27T07:40:35.472Z,15.90
2023-11-27T07:43:57.362Z,17.30
2023-11-27T07:47:19.096Z,16.70
2023-11-27T07:50:41.481Z,16.70
2023-11-27T07:54:03.599Z,18.20
2023-11-27T07:57:26.754Z,15.07
2023-11-27T08:00:48.639Z,15.30
2023-11-27T08:04:10.355Z,15.77
2023-11-27T08:07:33.078Z,16.67
2023-11-27T08:10:54.148Z,15.00
2023-11-27T08:14:18.281Z,16.37
2023-11-27T08:17:39.667Z,13.43
2023-11-27T08:21:02.349Z,14.33
2023-11-27T08:24:25.849Z,14.53
2023-11-27T08:27:48.528Z,13.43
2023-11-27T08:31:11.577Z,15.53
2023-11-27T08:34:33.214Z,14.57
2023-11-27T08:37:54.788Z,15.83
2023-11-27T08:41:16.639Z,15.30
2023-11-27T08:44:39.072Z,15.13
2023-11-27T08:48:04.254Z,13.60
2023-11-27T08:51:26.721Z,13.43
2023-11-27T08:54:48.307Z,12.93
2023-11-27T08:58:10.396Z,16.07
2023-11-27T09:01:32.466Z,16.13
2023-11-27T09:04:56.262Z,19.13
2023-11-27T09:08:18.712Z,16.47
2023-11-27T09:11:40.461Z,18.20
2023-11-27T09:15:01.796Z,15.53
2023-11-27T09:18:23.254Z,16.03
2023-11-27T09:21:46.799Z,15.67
2023-11-27T09:25:10.870Z,16.60
2023-11-27T09:28:32.434Z,14.13
2023-11-27T09:31:54.118Z,13.70
2023-11-27T09:35:16.902Z,15.87
2023-11-27T09:38:42.072Z,12.50
2023-11-27T09:42:04.923Z,17.27
2023-11-27T09:45:26.418Z,15.00
2023-11-27T09:48:52.788Z,15.73
2023-11-27T09:52:21.794Z,13.70
2023-11-27T09:55:50.466Z,15.20
2023-11-27T09:59:13.290Z,13.63
2023-11-27T10:02:35.698Z,12.77
2023-11-27T10:05:58.983Z,14.90
2023-11-27T10:09:22.083Z,19.47
2023-11-27T10:12:47.438Z,17.67
2023-11-27T10:16:10.453Z,15.30
2023-11-27T10:19:32.109Z,15.47
2023-11-27T10:22:55.316Z,14.07
2023-11-27T10:26:22.050Z,13.53
2023-11-27T10:29:44.846Z,14.10
2023-11-27T10:33:07.128Z,14.80
2023-11-27T10:36:28.818Z,16.53
2023-11-27T10:39:51.426Z,16.87
2023-11-27T10:43:13.173Z,16.43
2023-11-27T10:46:36.667Z,18.73
2023-11-27T10:50:00.253Z,14.47
2023-11-27T10:53:23.812Z,18.10
2023-11-27T10:56:47.577Z,14.33
2023-11-27T11:00:10.424Z,14.37
2023-11-27T11:03:34.674Z,14.43
2023-11-27T11:06:59.597Z,14.70
2023-11-27T11:10:27.428Z,11.63
2023-11-27T11:13:50.037Z,17.07
2023-11-27T11:17:20.885Z,14.73
2023-11-27T11:21:06.849Z,13.40
2023-11-27T11:24:39.096Z,16.67
2023-11-27T11:28:07.752Z,16.40
2023-11-27T11:31:39.638Z,16.27
2023-11-27T11:35:03.766Z,14.87
2023-11-27T11:38:27.829Z,16.97
2023-11-27T11:41:53.313Z,16.40
2023-11-27T11:45:26.478Z,16.90
2023-11-27T11:48:55.164Z,17.00
2023-11-27T11:52:20.612Z,13.93
2023-11-27T11:55:45.189Z,16.57
2023-11-27T11:59:15.607Z,14.80
2023-11-27T12:02:37.808Z,17.40
2023-11-27T12:06:03.807Z,19.37
2023-11-27T12:09:25.372Z,21.43
2023-11-27T12:12:53.565Z,18.50
2023-11-27T12:16:18.223Z,20.40
2023-11-27T12:19:40.232Z,18.90
2023-11-27T12:23:01.871Z,23.00
2023-11-27T12:26:25.016Z,20.17
2023-11-27T12:29:50.907Z,20.40
2023-11-27T12:33:16.281Z,22.40
2023-11-27T12:36:39.197Z,24.47
2023-11-27T12:40:00.792Z,23.30
2023-11-27T12:43:22.122Z,22.50
2023-11-27T12:46:51.278Z,21.93
2023-11-27T12:50:24.108Z,18.87
2023-11-27T12:53:50.479Z,18.07
2023-11-27T12:57:12.798Z,21.37
2023-11-27T13:00:34.595Z,20.93
2023-11-27T13:03:57.501Z,18.53
2023-11-27T13:07:20.697Z,19.60
2023-11-27T13:10:44.516Z,19.40
2023-11-27T13:14:09.208Z,16.50
2023-11-27T13:17:36.781Z,15.97
2023-11-27T13:21:00.958Z,17.03
2023-11-27T13:24:27.744Z,14.03
2023-11-27T13:27:50.176Z,15.10
2023-11-27T13:31:13.902Z,13.30
2023-11-27T13:34:35.461Z,14.97
2023-11-27T13:38:01.564Z,14.90
2023-11-27T13:41:23.902Z,16.30
2023-11-27T13:44:46.919Z,14.20
2023-11-27T13:48:15.111Z,17.13
2023-11-27T13:51:36.926Z,17.07
2023-11-27T13:55:01.695Z,15.97
2023-11-27T13:58:27.818Z,15.03
2023-11-27T14:01:55.803Z,18.17
2023-11-27T14:05:21.843Z,13.97
2023-11-27T14:08:52.383Z,18.57
2023-11-27T14:12:15.443Z,15.23
2023-11-27T14:15:42.581Z,16.93
2023-11-27T14:19:21.626Z,16.47
2023-11-27T14:22:58.733Z,14.33
2023-11-27T14:26:35.557Z,18.03
2023-11-27T14:29:58.618Z,14.60
2023-11-27T14:33:21.203Z,16.07
2023-11-27T14:36:45.267Z,15.83
2023-11-27T14:40:20.762Z,14.67
2023-11-27T14:43:43.929Z,16.40
2023-11-27T14:47:11.010Z,17.17
2023-11-27T14:50:33.691Z,19.03
2023-11-27T14:53:57.268Z,16.83
2023-11-27T14:57:19.851Z,17.43
2023-11-27T15:00:44.974Z,18.93
2023-11-27T15:04:11.445Z,20.27
2023-11-27T15:07:32.853Z,20.20
2023-11-27T15:10:54.762Z,22.27
2023-11-27T15:14:20.008Z,16.40
2023-11-27T15:17:42.391Z,18.07
2023-11-27T15:21:05.463Z,16.67
2023-11-27T15:24:30.402Z,16.57
2023-11-27T15:27:52.313Z,17.43
2023-11-27T15:31:17.454Z,16.63
2023-11-27T15:34:39.439Z,15.67
2023-11-27T15:38:04.082Z,18.13
2023-11-27T15:41:25.734Z,17.37
2023-11-27T15:44:46.988Z,15.90
2023-11-27T15:48:08.218Z,15.33
2023-11-27T15:51:29.465Z,14.97
2023-11-27T15:54:52.368Z,16.83
2023-11-27T15:58:14.294Z,14.33
2023-11-27T16:01:36.164Z,14.23
2023-11-27T16:04:58.675Z,13.03
2023-11-27T16:08:20.102Z,13.30
2023-11-27T16:11:43.611Z,17.80
2023-11-27T16:15:05.749Z,11.37
2023-11-27T16:18:31.227Z,14.53
2023-11-27T16:21:53.023Z,15.70
2023-11-27T16:25:15.545Z,13.73
2023-11-27T16:28:38.554Z,12.70
2023-11-27T16:32:00.576Z,14.27
2023-11-27T16:35:23.406Z,13.43
2023-11-27T16:38:45.501Z,13.53
2023-11-27T16:42:07.419Z,13.70
2023-11-27T16:45:30.313Z,15.37
2023-11-27T16:48:51.685Z,13.30
2023-11-27T16:52:13.326Z,14.03
2023-11-27T16:55:36.906Z,16.83
2023-11-27T16:58:58.564Z,12.43
2023-11-27T17:02:23.165Z,13.37
2023-11-27T17:05:44.892Z,14.33
2023-11-27T17:09:08.824Z,12.57
2023-11-27T17:12:30.282Z,18.40
2023-11-27T17:15:51.784Z,18.13
2023-11-27T17:19:17.125Z,16.37
2023-11-27T17:22:45.907Z,17.60
2023-11-27T17:26:13.900Z,15.43
2023-11-27T17:29:35.721Z,17.87
2023-11-27T17:32:59.153Z,19.10
2023-11-27T17:36:22.154Z,15.90
2023-11-27T17:39:43.481Z,16.10
2023-11-27T17:43:06.113Z,16.90
2023-11-27T17:46:29.528Z,18.20
2023-11-27T17:49:51.832Z,16.63
2023-11-27T17:53:14.832Z,19.53
2023-11-27T17:56:40.492Z,19.00
2023-11-27T18:00:07.790Z,23.50
2023-11-27T18:03:34.492Z,17.80
2023-11-27T18:06:55.688Z,17.27
2023-11-27T18:10:19.013Z,19.23
2023-11-27T18:13:42.016Z,18.37
2023-11-27T18:17:05.005Z,20.07
2023-11-27T18:20:26.792Z,16.43
2023-11-27T18:23:48.599Z,15.83
2023-11-27T18:27:11.456Z,17.20
2023-11-27T18:30:33.321Z,17.87
2023-11-27T18:33:54.925Z,23.37
2023-11-27T18:37:17.362Z,20.40
2023-11-27T18:40:38.678Z,16.70
2023-11-27T18:44:01.723Z,20.07
2023-11-27T18:47:23.283Z,19.40
2023-11-27T18:50:48.133Z,20.03
2023-11-27T18:54:09.583Z,18.87
2023-11-27T18:57:31.074Z,20.23
2023-11-27T19:00:54.171Z,19.97
2023-11-27T19:04:17.305Z,18.03
2023-11-27T19:07:38.699Z,20.00
2023-11-27T19:11:02.546Z,18.00
2023-11-27T19:14:23.829Z,20.70
2023-11-27T19:17:47.198Z,20.37
2023-11-27T19:21:09.477Z,24.50
2023-11-27T19:24:32.870Z,20.70
2023-11-27T19:27:54.368Z,20.73
2023-11-27T19:31:16.111Z,20.93
2023-11-27T19:34:39.297Z,21.83
2023-11-27T19:38:01.195Z,23.20
2023-11-27T19:41:23.605Z,19.33
2023-11-27T19:44:47.151Z,22.97
2023-11-27T19:48:09.149Z,21.30
2023-11-27T19:51:32.243Z,22.97
2023-11-27T19:54:53.479Z,19.13
2023-11-27T19:58:14.969Z,24.10
2023-11-27T20:01:36.804Z,19.20
2023-11-27T20:04:58.641Z,19.73
2023-11-27T20:08:21.222Z,22.10
2023-11-27T20:11:42.485Z,18.43
2023-11-27T20:15:04.016Z,19.03
2023-11-27T20:18:28.947Z,21.07
2023-11-27T20:21:51.405Z,18.27
2023-11-27T20:25:14.255Z,21.73
2023-11-27T20:28:36.059Z,19.47
2023-11-27T20:31:57.707Z,21.57
2023-11-27T20:35:19.462Z,23.67
2023-11-27T20:38:41.173Z,20.77
2023-11-27T20:42:04.067Z,20.27
2023-11-27T20:45:26.212Z,24.00
2023-11-27T20:48:50.676Z,21.10
2023-11-27T20:52:12.695Z,21.80
2023-11-27T20:55:34.256Z,21.67
2023-11-27T20:58:56.871Z,19.97
2023-11-27T21:02:18.917Z,19.40
2023-11-27T21:05:40.542Z,19.83
2023-11-27T21:09:01.940Z,21.07
2023-11-27T21:12:23.177Z,17.87
2023-11-27T21:15:47.791Z,20.90
2023-11-27T21:19:09.573Z,18.73
2023-11-27T21:22:31.279Z,19.07
2023-11-27T21:25:53.156Z,22.27
2023-11-27T21:29:14.761Z,19.67
2023-11-27T21:32:37.859Z,21.10
2023-11-27T21:35:59.950Z,18.00
2023-11-27T21:39:22.498Z,21.00
2023-11-27T21:42:45.262Z,20.33
2023-11-27T21:46:07.692Z,21.20
2023-11-27T21:49:30.966Z,18.90
2023-11-27T21:52:53.265Z,17.60
2023-11-27T21:56:15.251Z,19.93
2023-11-27T21:59:36.629Z,17.00
2023-11-27T22:02:58.141Z,21.03
2023-11-27T22:06:22.245Z,18.47
2023-11-27T22:09:47.547Z,18.67
2023-11-27T22:13:09.095Z,17.63
2023-11-27T22:16:30.873Z,18.40
2023-11-27T22:19:52.666Z,19.93
2023-11-27T22:23:15.330Z,16.80
2023-11-27T22:26:41.622Z,15.90
2023-11-27T22:30:03.010Z,15.43
2023-11-27T22:33:24.368Z,15.57
2023-11-27T22:36:45.740Z,16.17
2023-11-27T22:40:09.903Z,17.30
2023-11-27T22:43:31.800Z,16.23
2023-11-27T22:46:53.043Z,16.53
2023-11-27T22:50:14.657Z,17.07
2023-11-27T22:53:35.969Z,15.43
2023-11-27T22:56:58.720Z,17.57
2023-11-27T23:00:23.554Z,17.30
2023-11-27T23:03:44.939Z,15.73
2023-11-27T23:07:06.921Z,18.77
2023-11-27T23:10:28.322Z,15.93
2023-11-27T23:13:51.016Z,15.93
2023-11-27T23:17:12.365Z,16.43
2023-11-27T23:20:34.298Z,14.03
2023-11-27T23:23:56.039Z,13.90
2023-11-27T23:27:17.321Z,14.93
2023-11-27T23:30:40.457Z,17.57
2023-11-27T23:34:01.935Z,12.13
2023-11-27T23:37:23.199Z,11.60
2023-11-27T23:40:44.948Z,13.93
2023-11-27T23:44:06.592Z,13.60
2023-11-27T23:47:29.651Z,12.70
2023-11-27T23:50:51.286Z,10.90
2023-11-27T23:54:12.652Z,15.53
2023-11-27T23:57:34.198Z,10.87
